TimeEST,TemperatureF,Dew PointF,Humidity,Sea Level PressureIn,VisibilityMPH,Wind Direction,Wind SpeedMPH,Gust SpeedMPH,PrecipitationIn,Events,Conditions,WindDirDegrees,DateUTC
12:15 AM,50.2,50.2,100,30.27,5.0,South,3.5,-,N/A,,Clear,180,2013-01-29 05:15:00
12:35 AM,47.3,46.9,99,30.27,2.5,Calm,Calm,-,N/A,,Clear,0,2013-01-29 05:35:00
12:55 AM,47.3,47.3,100,30.27,1.0,SW,3.5,-,N/A,,Mist,220,2013-01-29 05:55:00
1:15 AM,48.6,48.6,100,30.26,3.0,SW,3.5,-,N/A,,Clear,220,2013-01-29 06:15:00
1:35 AM,48.6,48.6,100,30.26,5.0,SW,3.5,-,N/A,,Clear,220,2013-01-29 06:35:00
1:55 AM,48.6,48.6,100,30.26,5.0,SW,3.5,-,N/A,,Clear,230,2013-01-29 06:55:00
2:15 AM,47.8,47.8,100,30.25,5.0,Calm,Calm,-,N/A,,Clear,0,2013-01-29 07:15:00
2:35 AM,47.8,47.8,100,30.25,5.0,SW,4.6,-,N/A,,Clear,220,2013-01-29 07:35:00
2:55 AM,48.4,48.0,99,30.25,7.0,SW,3.5,-,N/A,,Clear,230,2013-01-29 07:55:00
3:15 AM,48.6,48.0,98,30.25,7.0,SW,3.5,-,N/A,,Clear,220,2013-01-29 08:15:00
3:35 AM,47.7,47.1,98,30.25,7.0,SW,3.5,-,N/A,,Clear,220,2013-01-29 08:35:00
3:55 AM,47.7,46.8,97,30.24,7.0,Calm,Calm,-,N/A,,Clear,0,2013-01-29 08:55:00
4:15 AM,48.4,47.3,96,30.24,7.0,Calm,Calm,-,N/A,,Clear,0,2013-01-29 09:15:00
4:35 AM,45.9,44.8,96,30.24,4.0,Calm,Calm,-,N/A,,Clear,0,2013-01-29 09:35:00
4:55 AM,45.5,45.0,98,30.24,5.0,Calm,Calm,-,N/A,,Clear,0,2013-01-29 09:55:00
5:15 AM,46.6,45.9,97,30.24,5.0,Calm,Calm,-,N/A,,Mostly Cloudy,0,2013-01-29 10:15:00
5:35 AM,45.7,45.3,99,30.24,4.0,SSW,4.6,-,N/A,,Mostly Cloudy,210,2013-01-29 10:35:00
5:55 AM,46.8,46.4,99,30.24,5.0,SSW,4.6,-,N/A,,Overcast,210,2013-01-29 10:55:00
6:15 AM,46.9,46.6,99,30.24,5.0,SW,3.5,-,N/A,,Overcast,220,2013-01-29 11:15:00
6:35 AM,47.5,46.9,98,30.24,5.0,Calm,Calm,-,N/A,,Overcast,0,2013-01-29 11:35:00
6:55 AM,47.3,46.4,97,30.24,5.0,SW,4.6,-,N/A,,Scattered Clouds,230,2013-01-29 11:55:00
7:15 AM,46.9,46.0,97,30.24,5.0,Calm,Calm,-,N/A,,Clear,0,2013-01-29 12:15:00
8:15 AM,48.6,47.1,95,30.25,5.0,Calm,Calm,-,N/A,,Clear,0,2013-01-29 13:15:00
8:35 AM,49.5,46.9,91,30.25,5.0,Calm,Calm,-,N/A,,Clear,0,2013-01-29 13:35:00
8:55 AM,50.7,47.1,87,30.26,5.0,Calm,Calm,-,N/A,,Clear,0,2013-01-29 13:55:00
9:15 AM,52.5,48.0,85,30.26,5.0,West,3.5,-,N/A,,Haze,260,2013-01-29 14:15:00
9:35 AM,54.9,48.7,80,30.25,5.0,WSW,5.8,-,N/A,,Haze,250,2013-01-29 14:35:00
9:55 AM,56.3,50.2,80,30.25,7.0,WSW,6.9,-,N/A,,Scattered Clouds,250,2013-01-29 14:55:00
10:15 AM,58.1,51.8,80,30.25,7.0,SW,6.9,-,N/A,,Clear,220,2013-01-29 15:15:00
10:35 AM,61.0,53.2,76,30.24,7.0,SW,6.9,-,N/A,,Clear,230,2013-01-29 15:35:00
10:55 AM,62.8,54.9,75,30.24,7.0,West,8.1,-,N/A,,Clear,260,2013-01-29 15:55:00
11:15 AM,64.6,55.9,74,30.23,10.0,WSW,8.1,-,N/A,,Clear,250,2013-01-29 16:15:00
11:35 AM,66.2,56.5,71,30.23,10.0,West,8.1,-,N/A,,Clear,260,2013-01-29 16:35:00
11:55 AM,68.0,56.7,67,30.22,10.0,West,8.1,-,N/A,,Clear,270,2013-01-29 16:55:00
12:15 PM,69.6,57.6,65,30.20,10.0,West,8.1,-,N/A,,Clear,270,2013-01-29 17:15:00
12:55 PM,71.4,57.0,60,30.18,10.0,SW,9.2,-,N/A,,Clear,230,2013-01-29 17:55:00
1:15 PM,72.0,56.8,59,30.17,10.0,WSW,8.1,-,N/A,,Clear,250,2013-01-29 18:15:00
1:35 PM,73.4,56.5,55,30.16,10.0,SW,11.5,-,N/A,,Clear,220,2013-01-29 18:35:00
1:55 PM,73.4,56.5,55,30.14,10.0,West,8.1,-,N/A,,Clear,260,2013-01-29 18:55:00
2:15 PM,73.4,55.8,54,30.14,10.0,SW,9.2,-,N/A,,Clear,230,2013-01-29 19:15:00
2:35 PM,73.4,55.6,54,30.14,10.0,WSW,9.2,-,N/A,,Clear,250,2013-01-29 19:35:00
2:55 PM,74.3,55.9,53,30.14,10.0,SW,9.2,-,N/A,,Clear,230,2013-01-29 19:55:00
3:15 PM,74.3,55.0,51,30.14,10.0,WSW,6.9,-,N/A,,Clear,240,2013-01-29 20:15:00
3:35 PM,75.0,55.6,51,30.14,10.0,SW,9.2,-,N/A,,Clear,230,2013-01-29 20:35:00
4:15 PM,74.3,55.9,53,30.14,10.0,SW,6.9,-,N/A,,Clear,230,2013-01-29 21:15:00
4:35 PM,73.9,56.1,54,30.14,10.0,SSW,6.9,-,N/A,,Clear,210,2013-01-29 21:35:00
4:55 PM,73.4,55.8,54,30.13,10.0,SSW,3.5,-,N/A,,Clear,210,2013-01-29 21:55:00
5:15 PM,71.8,55.6,57,30.13,10.0,SSW,3.5,-,N/A,,Clear,210,2013-01-29 22:15:00
5:35 PM,70.3,56.1,61,30.12,10.0,Calm,Calm,-,N/A,,Clear,0,2013-01-29 22:35:00
5:55 PM,68.0,56.5,67,30.12,10.0,SSE,4.6,-,N/A,,Clear,160,2013-01-29 22:55:00
6:15 PM,67.5,56.5,68,30.12,10.0,SSE,3.5,-,N/A,,Clear,150,2013-01-29 23:15:00
6:35 PM,64.4,56.5,75,30.13,10.0,SSE,3.5,-,N/A,,Clear,150,2013-01-29 23:35:00
6:55 PM,64.8,57.4,77,30.13,10.0,SSE,6.9,-,N/A,,Clear,150,2013-01-29 23:55:00
7:15 PM,64.6,57.9,79,30.13,10.0,SSE,5.8,-,N/A,,Clear,150,2013-01-30 00:15:00
7:35 PM,64.4,58.5,81,30.13,10.0,SSE,5.8,-,N/A,,Clear,150,2013-01-30 00:35:00
7:55 PM,63.5,58.5,84,30.13,10.0,South,5.8,-,N/A,,Clear,170,2013-01-30 00:55:00
8:15 PM,63.1,58.6,85,30.13,10.0,South,5.8,-,N/A,,Clear,170,2013-01-30 01:15:00
8:55 PM,62.8,58.5,86,30.13,10.0,South,4.6,-,N/A,,Clear,170,2013-01-30 01:55:00
9:15 PM,61.5,57.7,87,30.13,10.0,South,5.8,-,N/A,,Clear,170,2013-01-30 02:15:00
9:35 PM,61.7,57.7,87,30.13,10.0,South,5.8,-,N/A,,Clear,170,2013-01-30 02:35:00
9:55 PM,61.0,57.6,88,30.14,10.0,South,4.6,-,N/A,,Clear,170,2013-01-30 02:55:00
10:15 PM,61.2,58.1,90,30.13,10.0,South,5.8,-,N/A,,Clear,170,2013-01-30 03:15:00
10:35 PM,61.3,58.8,91,30.13,10.0,South,6.9,-,N/A,,Clear,190,2013-01-30 03:35:00
10:55 PM,61.2,59.0,93,30.13,10.0,South,5.8,-,N/A,,Clear,190,2013-01-30 03:55:00
11:15 PM,61.7,59.9,94,30.13,10.0,SSE,5.8,-,N/A,,Clear,160,2013-01-30 04:15:00
11:35 PM,61.2,60.3,97,30.14,7.0,South,5.8,-,N/A,,Clear,190,2013-01-30 04:35:00
11:55 PM,61.7,60.8,97,30.13,7.0,South,5.8,-,N/A,,Clear,190,2013-01-30 04:55:00